| time (UTC) | temp F | wind direction | speed MPH | gust MPH | rain 1hr in | rain 24hr in | rain mn in | humidity % | barometer mb |
| 20260507163016 | 60 | 22 | 0.0 | 7.0 | 0.00 | 0.00 | 0.00 | 42 | 1013.4 |
| 20260507161518 | 59 | 233 | 1.0 | 8.0 | 0.00 | 0.00 | 0.00 | 43 | 1013.6 |
| 20260507160120 | 58 | 98 | 0.0 | 5.0 | 0.00 | 0.00 | 0.00 | 45 | 1014.0 |
| 20260507154539 | 58 | 242 | 3.0 | 7.0 | 0.00 | 0.00 | 0.00 | 41 | 1014.1 |
| 20260507153038 | 57 | 153 | 1.0 | 6.0 | 0.00 | 0.00 | 0.00 | 44 | 1014.3 |
| 20260507151509 | 56 | 144 | 0.0 | 6.0 | 0.00 | 0.00 | 0.00 | 45 | 1014.4 |
| 20260507150007 | 55 | 201 | 1.0 | 6.0 | 0.00 | 0.00 | 0.00 | 45 | 1014.5 |
| 20260507144508 | 54 | 202 | 1.0 | 7.0 | 0.00 | 0.00 | 0.00 | 45 | 1014.5 |
| 20260507143006 | 54 | 244 | 0.0 | 5.0 | 0.00 | 0.00 | 0.00 | 48 | 1014.7 |
| 20260507141503 | 53 | 257 | 1.0 | 4.0 | 0.00 | 0.00 | 0.00 | 50 | 1014.8 |
| 20260507140002 | 51 | 297 | 1.0 | 7.0 | 0.00 | 0.00 | 0.00 | 51 | 1015.0 |
| 20260507134609 | 50 | 244 | 0.0 | 4.0 | 0.00 | 0.00 | 0.00 | 52 | 1015.1 |
| 20260507133106 | 49 | 188 | 0.0 | 2.0 | 0.00 | 0.00 | 0.00 | 56 | 1015.2 |
| 20260507131601 | 48 | 169 | 0.0 | 4.0 | 0.00 | 0.00 | 0.00 | 57 | 1015.0 |
| 20260507130057 | 47 | 163 | 0.0 | 2.0 | 0.00 | 0.00 | 0.00 | 60 | 1014.9 |
| 20260507124554 | 46 | 245 | 0.0 | 0.0 | 0.00 | 0.00 | 0.00 | 65 | 1014.9 |
| 20260507123055 | 44 | 246 | 0.0 | 0.0 | 0.00 | 0.00 | 0.00 | 68 | 1014.9 |
| 20260507121553 | 42 | 248 | 0.0 | 1.0 | 0.00 | 0.00 | 0.00 | 72 | 1014.8 |
| 20260507121523 | 42 | 248 | 0.0 | 1.0 | 0.00 | 0.00 | 0.00 | 72 | 1014.8 |
| 20260507120052 | 40 | 302 | 0.0 | 1.0 | 0.00 | 0.00 | 0.00 | 79 | 1014.8 |
| 20260507114558 | 37 | 19 | 0.0 | 0.0 | 0.00 | 0.00 | 0.00 | 87 | 1014.9 |
| 20260507113051 | 33 | 19 | 0.0 | 0.0 | 0.00 | 0.00 | 0.00 | 88 | 1014.8 |
| 20260507111557 | 31 | 19 | 0.0 | 0.0 | 0.00 | 0.00 | 0.00 | 88 | 1014.8 |
| 20260507110048 | 31 | 19 | 0.0 | 0.0 | 0.00 | 0.00 | 0.00 | 88 | 1014.7 |
| 20260507104545 | 30 | 19 | 0.0 | 0.0 | 0.00 | 0.00 | 0.00 | 87 | 1014.7 |
| 20260507103043 | 30 | 276 | 0.0 | 0.0 | 0.00 | 0.00 | 0.00 | 86 | 1014.6 |
| 20260507101548 | 31 | 276 | 0.0 | 0.0 | 0.00 | 0.00 | 0.00 | 85 | 1014.6 |
| 20260507100040 | 32 | 276 | 0.0 | 0.0 | 0.00 | 0.00 | 0.00 | 85 | 1014.6 |
| 20260507094539 | 32 | 276 | 0.0 | 0.0 | 0.00 | 0.00 | 0.00 | 86 | 1014.7 |
| 20260507093041 | 32 | 276 | 0.0 | 0.0 | 0.00 | 0.00 | 0.00 | 85 | 1014.8 |
| 20260507091537 | 33 | 276 | 0.0 | 0.0 | 0.00 | 0.00 | 0.00 | 85 | 1014.7 |
| 20260507090031 | 33 | 276 | 0.0 | 0.0 | 0.00 | 0.00 | 0.00 | 84 | 1014.7 |
| 20260507084528 | 33 | 276 | 0.0 | 0.0 | 0.00 | 0.00 | 0.00 | 85 | 1014.7 |
| 20260507083029 | 33 | 276 | 0.0 | 0.0 | 0.00 | 0.00 | 0.00 | 85 | 1014.8 |
| 20260507081534 | 33 | 276 | 0.0 | 0.0 | 0.00 | 0.00 | 0.00 | 83 | 1014.8 |
| 20260507080023 | 34 | 276 | 0.0 | 0.0 | 0.00 | 0.00 | 0.00 | 82 | 1014.7 |
| 20260507074516 | 34 | 276 | 0.0 | 0.0 | 0.00 | 0.00 | 0.00 | 82 | 1014.7 |
| 20260507073014 | 35 | 276 | 0.0 | 0.0 | 0.00 | 0.00 | 0.00 | 82 | 1014.6 |
| 20260507071514 | 35 | 276 | 0.0 | 0.0 | 0.00 | 0.00 | 0.00 | 81 | 1014.6 |
| 20260507070013 | 35 | 276 | 0.0 | 0.0 | 0.00 | 0.00 | 0.00 | 81 | 1014.7 |
| 20260507064507 | 35 | 276 | 0.0 | 0.0 | 0.00 | 0.00 | 0.00 | 81 | 1014.8 |
| 20260507063004 | 35 | 276 | 0.0 | 0.0 | 0.00 | 0.00 | 0.00 | 80 | 1014.9 |
| 20260507061503 | 36 | 276 | 0.0 | 0.0 | 0.00 | 0.00 | 0.00 | 76 | 1014.9 |
| 20260507060100 | 36 | 276 | 0.0 | 0.0 | 0.00 | 0.00 | 0.00 | 75 | 1014.9 |
| 20260507054607 | 36 | 276 | 0.0 | 0.0 | 0.00 | 0.00 | 0.00 | 75 | 1014.9 |
| 20260507053054 | 36 | 276 | 0.0 | 0.0 | 0.00 | 0.00 | 0.00 | 76 | 1015.0 |
| 20260507051553 | 37 | 276 | 0.0 | 0.0 | 0.00 | 0.00 | 0.00 | 75 | 1015.0 |
| 20260507050051 | 37 | 276 | 0.0 | 0.0 | 0.00 | 0.00 | 0.00 | 75 | 1015.0 |
| 20260507044518 | 37 | 276 | 0.0 | 0.0 | 0.00 | 0.00 | 0.00 | 73 | 1014.9 |
| 20260507043015 | 38 | 276 | 0.0 | 0.0 | 0.00 | 0.00 | 0.00 | 70 | 1014.8 |
| 20260507041526 | 39 | 276 | 0.0 | 0.0 | 0.00 | 0.00 | 0.00 | 68 | 1014.9 |
| 20260507040005 | 41 | 276 | 0.0 | 0.0 | 0.00 | 0.00 | 0.00 | 65 | 1014.9 |
| 20260507034501 | 42 | 276 | 0.0 | 0.0 | 0.00 | 0.00 | 0.00 | 61 | 1014.9 |
| 20260507033059 | 42 | 276 | 0.0 | 1.0 | 0.00 | 0.00 | 0.00 | 60 | 1014.9 |
| 20260507031526 | 43 | 297 | 0.0 | 0.0 | 0.00 | 0.00 | 0.00 | 60 | 1014.8 |
| 20260507030021 | 44 | 297 | 0.0 | 0.0 | 0.00 | 0.00 | 0.00 | 57 | 1014.7 |
| 20260507024617 | 46 | 297 | 0.0 | 0.0 | 0.00 | 0.00 | 0.00 | 53 | 1014.7 |
| 20260507023056 | 47 | 307 | 0.0 | 3.0 | 0.00 | 0.00 | 0.00 | 52 | 1014.5 |
| 20260507021549 | 47 | 285 | 0.0 | 3.0 | 0.00 | 0.00 | 0.00 | 50 | 1014.3 |
| 20260507020008 | 48 | 282 | 1.0 | 6.0 | 0.00 | 0.00 | 0.00 | 49 | 1014.1 |
| 20260507014514 | 49 | 319 | 1.0 | 7.0 | 0.00 | 0.00 | 0.00 | 48 | 1013.9 |
| 20260507013042 | 49 | 241 | 4.0 | 11.0 | 0.00 | 0.00 | 0.00 | 47 | 1013.7 |
| 20260507011536 | 50 | 290 | 3.0 | 12.0 | 0.00 | 0.00 | 0.00 | 46 | 1013.6 |
| 20260507010021 | 51 | 243 | 1.0 | 12.0 | 0.00 | 0.00 | 0.00 | 46 | 1013.4 |
| 20260507004520 | 52 | 297 | 2.0 | 7.0 | 0.00 | 0.00 | 0.00 | 46 | 1013.3 |
| 20260507003017 | 52 | 302 | 2.0 | 7.0 | 0.00 | 0.00 | 0.00 | 45 | 1013.2 |
| 20260507001514 | 53 | 211 | 3.0 | 8.0 | 0.00 | 0.00 | 0.00 | 45 | 1013.1 |
| 20260507000020 | 53 | 262 | 3.0 | 11.0 | 0.00 | 0.00 | 0.00 | 44 | 1012.9 |
| 20260506234506 | 54 | 321 | 2.0 | 9.0 | 0.00 | 0.00 | 0.00 | 43 | 1012.7 |
| 20260506233004 | 55 | 252 | 2.0 | 10.0 | 0.00 | 0.00 | 0.00 | 42 | 1012.7 |
| 20260506231502 | 54 | 301 | 1.0 | 10.0 | 0.00 | 0.00 | 0.00 | 43 | 1012.6 |
| 20260506230057 | 56 | 255 | 4.0 | 11.0 | 0.00 | 0.00 | 0.00 | 40 | 1012.4 |
| 20260506224557 | 55 | 265 | 1.0 | 10.0 | 0.00 | 0.00 | 0.00 | 42 | 1012.4 |
| 20260506223106 | 56 | 252 | 2.0 | 8.0 | 0.00 | 0.00 | 0.00 | 40 | 1012.4 |
| 20260506221552 | 56 | 129 | 4.0 | 11.0 | 0.00 | 0.00 | 0.00 | 40 | 1012.3 |
| 20260506220049 | 57 | 207 | 4.0 | 15.0 | 0.00 | 0.00 | 0.00 | 38 | 1012.3 |
| 20260506214551 | 57 | 231 | 1.0 | 8.0 | 0.00 | 0.00 | 0.00 | 39 | 1012.1 |
| 20260506213047 | 58 | 278 | 1.0 | 7.0 | 0.00 | 0.00 | 0.00 | 40 | 1012.1 |
| 20260506211547 | 58 | 210 | 3.0 | 11.0 | 0.00 | 0.00 | 0.00 | 39 | 1012.1 |
| 20260506210044 | 58 | 278 | 1.0 | 8.0 | 0.00 | 0.00 | 0.00 | 40 | 1012.2 |
| 20260506204542 | 57 | 228 | 3.0 | 10.0 | 0.00 | 0.00 | 0.00 | 42 | 1012.3 |
| 20260506203045 | 58 | 269 | 2.0 | 8.0 | 0.00 | 0.00 | 0.00 | 44 | 1012.4 |
| 20260506201539 | 57 | 285 | 1.0 | 8.0 | 0.00 | 0.00 | 0.00 | 46 | 1012.7 |
| 20260506200006 | 57 | 339 | 3.0 | 10.0 | 0.00 | 0.00 | 0.00 | 42 | 1012.8 |
| 20260506194508 | 56 | 208 | 1.0 | 9.0 | 0.00 | 0.00 | 0.00 | 45 | 1012.9 |
| 20260506193001 | 57 | 153 | 2.0 | 6.0 | 0.00 | 0.00 | 0.00 | 44 | 1012.9 |
| 20260506191601 | 58 | 298 | 2.0 | 5.0 | 0.00 | 0.00 | 0.00 | 43 | 1013.0 |
| 20260506190059 | 58 | 270 | 0.0 | 8.0 | 0.00 | 0.00 | 0.00 | 44 | 1012.9 |
| 20260506184558 | 58 | 266 | 2.0 | 6.0 | 0.00 | 0.00 | 0.00 | 41 | 1012.9 |
| 20260506183030 | 58 | 340 | 5.0 | 13.0 | 0.00 | 0.00 | 0.00 | 40 | 1012.7 |
| 20260506181531 | 58 | 235 | 2.0 | 9.0 | 0.00 | 0.00 | 0.00 | 40 | 1012.9 |
| 20260506180031 | 57 | 167 | 1.0 | 5.0 | 0.00 | 0.00 | 0.00 | 40 | 1012.9 |
| 20260506174520 | 58 | 245 | 4.0 | 10.0 | 0.00 | 0.00 | 0.00 | 41 | 1013.1 |
| 20260506173020 | 58 | 313 | 2.0 | 9.0 | 0.00 | 0.00 | 0.00 | 38 | 1013.2 |
| 20260506171534 | 58 | 297 | 4.0 | 11.0 | 0.00 | 0.00 | 0.00 | 37 | 1013.1 |
| 20260506170013 | 57 | 323 | 2.0 | 10.0 | 0.00 | 0.00 | 0.00 | 40 | 1013.0 |
| 20260506164511 | 57 | 284 | 3.0 | 11.0 | 0.00 | 0.00 | 0.00 | 36 | 1013.0 |